sensor_id;sensor_type;location;lat;lon;timestamp;temperature;humidity
11009;DHT22;5557;51.670;7.788;2023-01-23T00:01:14;1.90;99.90
11009;DHT22;5557;51.670;7.788;2023-01-23T00:03:41;1.80;99.90
11009;DHT22;5557;51.670;7.788;2023-01-23T00:06:13;1.80;99.90
11009;DHT22;5557;51.670;7.788;2023-01-23T00:08:41;1.80;99.90
11009;DHT22;5557;51.670;7.788;2023-01-23T00:11:11;1.80;99.90
11009;DHT22;5557;51.670;7.788;2023-01-23T00:13:38;1.80;99.90
11009;DHT22;5557;51.670;7.788;2023-01-23T00:16:07;1.80;99.90
11009;DHT22;5557;51.670;7.788;2023-01-23T00:18:35;1.80;99.90
11009;DHT22;5557;51.670;7.788;2023-01-23T00:21:13;1.80;99.90
11009;DHT22;5557;51.670;7.788;2023-01-23T00:23:45;1.80;99.90
11009;DHT22;5557;51.670;7.788;2023-01-23T00:26:16;1.80;99.90
11009;DHT22;5557;51.670;7.788;2023-01-23T00:28:45;1.80;99.90
11009;DHT22;5557;51.670;7.788;2023-01-23T00:31:15;1.80;99.90
11009;DHT22;5557;51.670;7.788;2023-01-23T00:33:44;1.80;99.90
11009;DHT22;5557;51.670;7.788;2023-01-23T00:36:13;1.80;99.90
11009;DHT22;5557;51.670;7.788;2023-01-23T00:38:41;1.80;99.90
11009;DHT22;5557;51.670;7.788;2023-01-23T00:41:08;1.80;99.90
11009;DHT22;5557;51.670;7.788;2023-01-23T00:43:35;1.80;99.90
11009;DHT22;5557;51.670;7.788;2023-01-23T00:46:02;1.80;99.90
11009;DHT22;5557;51.670;7.788;2023-01-23T00:48:30;1.80;99.90
11009;DHT22;5557;51.670;7.788;2023-01-23T00:51:01;1.80;99.90
11009;DHT22;5557;51.670;7.788;2023-01-23T00:53:28;1.80;99.90
11009;DHT22;5557;51.670;7.788;2023-01-23T00:55:55;1.80;99.90
11009;DHT22;5557;51.670;7.788;2023-01-23T00:58:22;1.80;99.90
11009;DHT22;5557;51.670;7.788;2023-01-23T01:00:49;1.80;99.90
11009;DHT22;5557;51.670;7.788;2023-01-23T01:03:16;1.80;99.90
11009;DHT22;5557;51.670;7.788;2023-01-23T01:05:43;1.80;99.90
11009;DHT22;5557;51.670;7.788;2023-01-23T01:08:10;1.80;99.90
11009;DHT22;5557;51.670;7.788;2023-01-23T01:10:39;1.80;99.90
11009;DHT22;5557;51.670;7.788;2023-01-23T01:13:06;1.70;99.90
11009;DHT22;5557;51.670;7.788;2023-01-23T01:15:34;1.80;99.90
11009;DHT22;5557;51.670;7.788;2023-01-23T01:18:01;1.70;99.90
11009;DHT22;5557;51.670;7.788;2023-01-23T01:20:29;1.70;99.90
11009;DHT22;5557;51.670;7.788;2023-01-23T01:22:57;1.70;99.90
11009;DHT22;5557;51.670;7.788;2023-01-23T01:25:24;1.80;99.90
11009;DHT22;5557;51.670;7.788;2023-01-23T01:27:51;1.80;99.90
11009;DHT22;5557;51.670;7.788;2023-01-23T01:30:18;1.80;99.90
11009;DHT22;5557;51.670;7.788;2023-01-23T01:32:46;1.70;99.90
11009;DHT22;5557;51.670;7.788;2023-01-23T01:35:13;1.70;99.90
11009;DHT22;5557;51.670;7.788;2023-01-23T01:37:41;1.80;99.90
11009;DHT22;5557;51.670;7.788;2023-01-23T01:40:13;1.80;99.90
11009;DHT22;5557;51.670;7.788;2023-01-23T01:42:57;1.80;99.90
11009;DHT22;5557;51.670;7.788;2023-01-23T01:48:35;1.80;99.90
11009;DHT22;5557;51.670;7.788;2023-01-23T01:51:07;1.80;99.90
11009;DHT22;5557;51.670;7.788;2023-01-23T01:53:36;1.80;99.90
11009;DHT22;5557;51.670;7.788;2023-01-23T01:56:04;1.80;99.90
11009;DHT22;5557;51.670;7.788;2023-01-23T01:58:32;1.80;99.90
11009;DHT22;5557;51.670;7.788;2023-01-23T02:00:59;1.80;99.90
11009;DHT22;5557;51.670;7.788;2023-01-23T02:03:26;1.80;99.90
11009;DHT22;5557;51.670;7.788;2023-01-23T02:05:53;1.70;99.90
11009;DHT22;5557;51.670;7.788;2023-01-23T02:08:35;1.70;99.90
11009;DHT22;5557;51.670;7.788;2023-01-23T02:11:04;1.70;99.90
11009;DHT22;5557;51.670;7.788;2023-01-23T02:13:37;1.70;99.90
11009;DHT22;5557;51.670;7.788;2023-01-23T02:16:17;1.70;99.90
11009;DHT22;5557;51.670;7.788;2023-01-23T02:18:48;1.70;99.90
11009;DHT22;5557;51.670;7.788;2023-01-23T02:21:20;1.70;99.90
11009;DHT22;5557;51.670;7.788;2023-01-23T02:24:13;1.70;99.90
11009;DHT22;5557;51.670;7.788;2023-01-23T02:26:44;1.70;99.90
11009;DHT22;5557;51.670;7.788;2023-01-23T02:29:14;1.70;99.90
11009;DHT22;5557;51.670;7.788;2023-01-23T02:31:41;1.70;99.90
11009;DHT22;5557;51.670;7.788;2023-01-23T02:34:11;1.70;99.90
11009;DHT22;5557;51.670;7.788;2023-01-23T02:36:40;1.70;99.90
11009;DHT22;5557;51.670;7.788;2023-01-23T02:39:11;1.70;99.90
11009;DHT22;5557;51.670;7.788;2023-01-23T02:41:47;1.80;99.90
11009;DHT22;5557;51.670;7.788;2023-01-23T02:44:24;1.80;99.90
11009;DHT22;5557;51.670;7.788;2023-01-23T02:46:57;1.80;99.90
11009;DHT22;5557;51.670;7.788;2023-01-23T02:49:24;1.80;99.90
11009;DHT22;5557;51.670;7.788;2023-01-23T02:51:52;1.80;99.90
11009;DHT22;5557;51.670;7.788;2023-01-23T02:54:22;1.80;99.90
11009;DHT22;5557;51.670;7.788;2023-01-23T02:56:49;1.80;99.90
11009;DHT22;5557;51.670;7.788;2023-01-23T02:59:16;1.80;99.90
11009;DHT22;5557;51.670;7.788;2023-01-23T03:02:02;1.80;99.90
11009;DHT22;5557;51.670;7.788;2023-01-23T03:04:30;1.80;99.90
11009;DHT22;5557;51.670;7.788;2023-01-23T03:06:57;1.80;99.90
11009;DHT22;5557;51.670;7.788;2023-01-23T03:09:25;1.80;99.90
11009;DHT22;5557;51.670;7.788;2023-01-23T03:11:52;1.80;99.90
11009;DHT22;5557;51.670;7.788;2023-01-23T03:14:21;1.80;99.90
11009;DHT22;5557;51.670;7.788;2023-01-23T03:16:48;1.90;99.90
11009;DHT22;5557;51.670;7.788;2023-01-23T03:19:22;1.90;99.90
11009;DHT22;5557;51.670;7.788;2023-01-23T03:21:50;1.90;99.90
11009;DHT22;5557;51.670;7.788;2023-01-23T03:24:26;1.90;99.90
11009;DHT22;5557;51.670;7.788;2023-01-23T03:26:56;1.90;99.90
11009;DHT22;5557;51.670;7.788;2023-01-23T03:29:24;1.90;99.90
11009;DHT22;5557;51.670;7.788;2023-01-23T03:32:15;1.90;99.90
11009;DHT22;5557;51.670;7.788;2023-01-23T03:34:47;1.90;99.90
11009;DHT22;5557;51.670;7.788;2023-01-23T03:37:15;1.90;99.90
11009;DHT22;5557;51.670;7.788;2023-01-23T03:39:46;1.90;99.90
11009;DHT22;5557;51.670;7.788;2023-01-23T03:42:35;1.90;99.90
11009;DHT22;5557;51.670;7.788;2023-01-23T03:45:03;1.90;99.90
11009;DHT22;5557;51.670;7.788;2023-01-23T03:47:31;1.90;99.90
11009;DHT22;5557;51.670;7.788;2023-01-23T03:49:58;1.90;99.90
11009;DHT22;5557;51.670;7.788;2023-01-23T03:52:25;1.90;99.90
11009;DHT22;5557;51.670;7.788;2023-01-23T03:55:03;2.00;99.90
11009;DHT22;5557;51.670;7.788;2023-01-23T03:57:41;2.00;99.90
11009;DHT22;5557;51.670;7.788;2023-01-23T04:00:12;2.00;99.90
11009;DHT22;5557;51.670;7.788;2023-01-23T04:02:41;2.00;99.90
11009;DHT22;5557;51.670;7.788;2023-01-23T04:05:09;2.00;99.90
11009;DHT22;5557;51.670;7.788;2023-01-23T04:07:46;2.00;99.90
11009;DHT22;5557;51.670;7.788;2023-01-23T04:10:19;2.00;99.90
11009;DHT22;5557;51.670;7.788;2023-01-23T04:12:47;2.00;99.90
11009;DHT22;5557;51.670;7.788;2023-01-23T04:15:14;2.00;99.90
11009;DHT22;5557;51.670;7.788;2023-01-23T04:20:14;2.00;99.90
11009;DHT22;5557;51.670;7.788;2023-01-23T04:22:44;2.00;99.90
11009;DHT22;5557;51.670;7.788;2023-01-23T04:25:13;2.00;99.90
11009;DHT22;5557;51.670;7.788;2023-01-23T04:27:42;2.00;99.90
11009;DHT22;5557;51.670;7.788;2023-01-23T04:32:50;2.00;99.90
11009;DHT22;5557;51.670;7.788;2023-01-23T04:35:17;2.00;99.90
11009;DHT22;5557;51.670;7.788;2023-01-23T04:37:45;2.10;99.90
11009;DHT22;5557;51.670;7.788;2023-01-23T04:40:17;2.00;99.90
11009;DHT22;5557;51.670;7.788;2023-01-23T04:42:48;2.00;99.90
11009;DHT22;5557;51.670;7.788;2023-01-23T04:45:17;2.00;99.90
11009;DHT22;5557;51.670;7.788;2023-01-23T04:47:49;2.00;99.90
11009;DHT22;5557;51.670;7.788;2023-01-23T04:50:22;2.00;99.90
11009;DHT22;5557;51.670;7.788;2023-01-23T04:52:50;2.00;99.90
11009;DHT22;5557;51.670;7.788;2023-01-23T04:55:23;2.00;99.90
11009;DHT22;5557;51.670;7.788;2023-01-23T04:57:56;2.00;99.90
11009;DHT22;5557;51.670;7.788;2023-01-23T05:00:37;2.00;99.90
11009;DHT22;5557;51.670;7.788;2023-01-23T05:03:16;2.00;99.90
11009;DHT22;5557;51.670;7.788;2023-01-23T05:05:47;2.00;99.90
11009;DHT22;5557;51.670;7.788;2023-01-23T05:08:15;2.00;99.90
11009;DHT22;5557;51.670;7.788;2023-01-23T05:10:46;2.00;99.90
11009;DHT22;5557;51.670;7.788;2023-01-23T05:13:15;2.00;99.90
11009;DHT22;5557;51.670;7.788;2023-01-23T05:15:46;2.00;99.90
11009;DHT22;5557;51.670;7.788;2023-01-23T05:18:15;2.00;99.90
11009;DHT22;5557;51.670;7.788;2023-01-23T05:20:43;2.00;99.90
11009;DHT22;5557;51.670;7.788;2023-01-23T05:23:12;2.00;99.90
11009;DHT22;5557;51.670;7.788;2023-01-23T05:25:39;2.00;99.90
11009;DHT22;5557;51.670;7.788;2023-01-23T05:28:09;2.00;99.90
11009;DHT22;5557;51.670;7.788;2023-01-23T05:30:39;2.00;99.90
11009;DHT22;5557;51.670;7.788;2023-01-23T05:33:06;2.00;99.90
11009;DHT22;5557;51.670;7.788;2023-01-23T05:35:33;2.00;99.90
11009;DHT22;5557;51.670;7.788;2023-01-23T05:38:00;2.00;99.90
11009;DHT22;5557;51.670;7.788;2023-01-23T05:40:27;2.00;99.90
11009;DHT22;5557;51.670;7.788;2023-01-23T05:42:55;2.00;99.90
11009;DHT22;5557;51.670;7.788;2023-01-23T05:45:25;2.00;99.90
11009;DHT22;5557;51.670;7.788;2023-01-23T05:47:51;2.00;99.90
11009;DHT22;5557;51.670;7.788;2023-01-23T05:50:19;2.00;99.90
11009;DHT22;5557;51.670;7.788;2023-01-23T05:52:50;2.00;99.90
11009;DHT22;5557;51.670;7.788;2023-01-23T05:55:17;2.00;99.90
11009;DHT22;5557;51.670;7.788;2023-01-23T05:57:47;2.00;99.90
11009;DHT22;5557;51.670;7.788;2023-01-23T06:00:14;2.00;99.90
11009;DHT22;5557;51.670;7.788;2023-01-23T06:02:42;2.00;99.90
11009;DHT22;5557;51.670;7.788;2023-01-23T06:05:09;2.00;99.90
11009;DHT22;5557;51.670;7.788;2023-01-23T06:07:36;2.00;99.90
11009;DHT22;5557;51.670;7.788;2023-01-23T06:10:04;2.00;99.90
11009;DHT22;5557;51.670;7.788;2023-01-23T06:12:35;2.00;99.90
11009;DHT22;5557;51.670;7.788;2023-01-23T06:15:02;2.00;99.90
11009;DHT22;5557;51.670;7.788;2023-01-23T06:17:29;2.00;99.90
11009;DHT22;5557;51.670;7.788;2023-01-23T06:19:56;2.00;99.90
11009;DHT22;5557;51.670;7.788;2023-01-23T06:22:24;2.00;99.90
11009;DHT22;5557;51.670;7.788;2023-01-23T06:24:51;2.00;99.90
11009;DHT22;5557;51.670;7.788;2023-01-23T06:27:18;2.00;99.90
11009;DHT22;5557;51.670;7.788;2023-01-23T06:29:45;2.00;99.90
11009;DHT22;5557;51.670;7.788;2023-01-23T06:32:12;2.00;99.90
11009;DHT22;5557;51.670;7.788;2023-01-23T06:34:39;2.00;99.90
11009;DHT22;5557;51.670;7.788;2023-01-23T06:37:06;2.00;99.90
11009;DHT22;5557;51.670;7.788;2023-01-23T06:39:33;2.00;99.90
11009;DHT22;5557;51.670;7.788;2023-01-23T06:42:00;2.00;99.90
11009;DHT22;5557;51.670;7.788;2023-01-23T06:44:27;2.00;99.90
11009;DHT22;5557;51.670;7.788;2023-01-23T06:46:54;2.00;99.90
11009;DHT22;5557;51.670;7.788;2023-01-23T06:49:21;2.00;99.90
11009;DHT22;5557;51.670;7.788;2023-01-23T06:51:48;2.00;99.90
11009;DHT22;5557;51.670;7.788;2023-01-23T06:54:17;2.10;99.90
11009;DHT22;5557;51.670;7.788;2023-01-23T06:56:43;2.10;99.90
11009;DHT22;5557;51.670;7.788;2023-01-23T06:59:10;2.10;99.90
11009;DHT22;5557;51.670;7.788;2023-01-23T07:01:38;2.10;99.90
11009;DHT22;5557;51.670;7.788;2023-01-23T07:04:06;2.10;99.90
11009;DHT22;5557;51.670;7.788;2023-01-23T07:06:34;2.10;99.90
11009;DHT22;5557;51.670;7.788;2023-01-23T07:09:01;2.10;99.90
11009;DHT22;5557;51.670;7.788;2023-01-23T07:11:28;2.10;99.90
11009;DHT22;5557;51.670;7.788;2023-01-23T07:13:55;2.10;99.90
11009;DHT22;5557;51.670;7.788;2023-01-23T07:16:22;2.10;99.90
11009;DHT22;5557;51.670;7.788;2023-01-23T07:18:50;2.10;99.90
11009;DHT22;5557;51.670;7.788;2023-01-23T07:21:17;2.10;99.90
11009;DHT22;5557;51.670;7.788;2023-01-23T07:23:45;2.10;99.90
11009;DHT22;5557;51.670;7.788;2023-01-23T07:26:12;2.10;99.90
11009;DHT22;5557;51.670;7.788;2023-01-23T07:28:39;2.20;99.90
11009;DHT22;5557;51.670;7.788;2023-01-23T07:31:06;2.20;99.90
11009;DHT22;5557;51.670;7.788;2023-01-23T07:33:33;2.20;99.90
11009;DHT22;5557;51.670;7.788;2023-01-23T07:36:04;2.20;99.90
11009;DHT22;5557;51.670;7.788;2023-01-23T07:38:31;2.20;98.70
11009;DHT22;5557;51.670;7.788;2023-01-23T07:40:58;2.20;98.90
11009;DHT22;5557;51.670;7.788;2023-01-23T07:43:26;2.20;98.80
11009;DHT22;5557;51.670;7.788;2023-01-23T07:45:53;2.20;98.90
11009;DHT22;5557;51.670;7.788;2023-01-23T07:48:20;2.20;98.80
11009;DHT22;5557;51.670;7.788;2023-01-23T07:50:47;2.20;98.00
11009;DHT22;5557;51.670;7.788;2023-01-23T07:53:14;2.20;97.90
11009;DHT22;5557;51.670;7.788;2023-01-23T07:55:41;2.20;97.60
11009;DHT22;5557;51.670;7.788;2023-01-23T07:58:07;2.20;96.90
11009;DHT22;5557;51.670;7.788;2023-01-23T08:00:37;2.30;95.00
11009;DHT22;5557;51.670;7.788;2023-01-23T08:03:04;2.30;93.60
11009;DHT22;5557;51.670;7.788;2023-01-23T08:05:31;2.30;93.10
11009;DHT22;5557;51.670;7.788;2023-01-23T08:07:58;2.30;93.60
11009;DHT22;5557;51.670;7.788;2023-01-23T08:10:39;2.30;93.10
11009;DHT22;5557;51.670;7.788;2023-01-23T08:13:07;2.30;92.20
11009;DHT22;5557;51.670;7.788;2023-01-23T08:15:36;2.30;90.70
11009;DHT22;5557;51.670;7.788;2023-01-23T08:18:04;2.30;91.70
11009;DHT22;5557;51.670;7.788;2023-01-23T08:20:31;2.30;91.10
11009;DHT22;5557;51.670;7.788;2023-01-23T08:22:58;2.30;92.10
11009;DHT22;5557;51.670;7.788;2023-01-23T08:25:28;2.30;92.60
11009;DHT22;5557;51.670;7.788;2023-01-23T08:27:55;2.30;90.70
11009;DHT22;5557;51.670;7.788;2023-01-23T08:30:22;2.40;91.10
11009;DHT22;5557;51.670;7.788;2023-01-23T08:32:49;2.40;89.80
11009;DHT22;5557;51.670;7.788;2023-01-23T08:35:16;2.40;90.00
11009;DHT22;5557;51.670;7.788;2023-01-23T08:37:43;2.40;90.40
11009;DHT22;5557;51.670;7.788;2023-01-23T08:40:11;2.40;90.40
11009;DHT22;5557;51.670;7.788;2023-01-23T08:42:38;2.40;90.10
11009;DHT22;5557;51.670;7.788;2023-01-23T08:45:06;2.40;90.10
11009;DHT22;5557;51.670;7.788;2023-01-23T08:47:33;2.40;86.80
11009;DHT22;5557;51.670;7.788;2023-01-23T08:50:03;2.50;86.70
11009;DHT22;5557;51.670;7.788;2023-01-23T08:52:30;2.50;83.70
11009;DHT22;5557;51.670;7.788;2023-01-23T08:54:59;2.50;86.00
11009;DHT22;5557;51.670;7.788;2023-01-23T08:57:26;2.50;84.60
11009;DHT22;5557;51.670;7.788;2023-01-23T08:59:53;2.50;83.70
11009;DHT22;5557;51.670;7.788;2023-01-23T09:02:20;2.50;82.00
11009;DHT22;5557;51.670;7.788;2023-01-23T09:04:48;2.60;81.50
11009;DHT22;5557;51.670;7.788;2023-01-23T09:07:16;2.60;77.00
11009;DHT22;5557;51.670;7.788;2023-01-23T09:09:42;2.60;79.00
11009;DHT22;5557;51.670;7.788;2023-01-23T09:12:09;2.60;77.00
11009;DHT22;5557;51.670;7.788;2023-01-23T09:14:37;2.60;77.10
11009;DHT22;5557;51.670;7.788;2023-01-23T09:17:06;2.60;77.70
11009;DHT22;5557;51.670;7.788;2023-01-23T09:19:33;2.70;80.00
11009;DHT22;5557;51.670;7.788;2023-01-23T09:22:00;2.70;80.30
11009;DHT22;5557;51.670;7.788;2023-01-23T09:24:27;2.70;80.60
11009;DHT22;5557;51.670;7.788;2023-01-23T09:26:54;2.70;82.40
11009;DHT22;5557;51.670;7.788;2023-01-23T09:29:21;2.80;84.50
11009;DHT22;5557;51.670;7.788;2023-01-23T09:31:48;2.80;85.60
11009;DHT22;5557;51.670;7.788;2023-01-23T09:34:15;2.80;85.40
11009;DHT22;5557;51.670;7.788;2023-01-23T09:36:43;2.70;86.80
11009;DHT22;5557;51.670;7.788;2023-01-23T09:39:10;2.70;88.00
11009;DHT22;5557;51.670;7.788;2023-01-23T09:41:39;2.80;88.60
11009;DHT22;5557;51.670;7.788;2023-01-23T09:44:27;2.80;88.50
11009;DHT22;5557;51.670;7.788;2023-01-23T09:47:24;2.80;89.80
11009;DHT22;5557;51.670;7.788;2023-01-23T09:49:59;2.80;86.50
11009;DHT22;5557;51.670;7.788;2023-01-23T09:52:41;2.80;87.30
11009;DHT22;5557;51.670;7.788;2023-01-23T09:58:02;2.90;84.60
11009;DHT22;5557;51.670;7.788;2023-01-23T10:00:31;2.90;83.70
11009;DHT22;5557;51.670;7.788;2023-01-23T10:03:01;2.90;81.90
11009;DHT22;5557;51.670;7.788;2023-01-23T10:18:20;3.20;82.00
11009;DHT22;5557;51.670;7.788;2023-01-23T10:23:56;3.10;77.20
11009;DHT22;5557;51.670;7.788;2023-01-23T10:26:34;3.10;76.30
11009;DHT22;5557;51.670;7.788;2023-01-23T10:29:13;3.10;75.50
11009;DHT22;5557;51.670;7.788;2023-01-23T10:31:49;3.10;72.00
11009;DHT22;5557;51.670;7.788;2023-01-23T10:34:24;3.10;72.60
11009;DHT22;5557;51.670;7.788;2023-01-23T10:37:04;3.10;72.40
11009;DHT22;5557;51.670;7.788;2023-01-23T10:40:00;3.20;74.30
11009;DHT22;5557;51.670;7.788;2023-01-23T10:42:28;3.20;70.70
11009;DHT22;5557;51.670;7.788;2023-01-23T10:44:55;3.10;70.30
11009;DHT22;5557;51.670;7.788;2023-01-23T10:47:40;3.10;71.80
11009;DHT22;5557;51.670;7.788;2023-01-23T10:50:09;3.00;69.90
11009;DHT22;5557;51.670;7.788;2023-01-23T10:52:45;3.00;72.10
11009;DHT22;5557;51.670;7.788;2023-01-23T10:55:38;3.00;69.70
11009;DHT22;5557;51.670;7.788;2023-01-23T10:58:31;3.00;70.60
11009;DHT22;5557;51.670;7.788;2023-01-23T11:01:00;3.00;72.30
11009;DHT22;5557;51.670;7.788;2023-01-23T11:03:30;3.10;72.10
11009;DHT22;5557;51.670;7.788;2023-01-23T11:06:07;3.10;74.60
11009;DHT22;5557;51.670;7.788;2023-01-23T11:08:35;3.00;71.00
11009;DHT22;5557;51.670;7.788;2023-01-23T11:11:19;3.00;69.50
11009;DHT22;5557;51.670;7.788;2023-01-23T11:14:03;3.00;73.10
11009;DHT22;5557;51.670;7.788;2023-01-23T11:16:30;3.00;72.60
11009;DHT22;5557;51.670;7.788;2023-01-23T11:19:11;3.00;71.80
11009;DHT22;5557;51.670;7.788;2023-01-23T11:22:43;3.00;74.70
11009;DHT22;5557;51.670;7.788;2023-01-23T11:25:37;3.00;72.60
11009;DHT22;5557;51.670;7.788;2023-01-23T11:28:27;3.10;69.90
11009;DHT22;5557;51.670;7.788;2023-01-23T11:31:17;3.00;69.60
11009;DHT22;5557;51.670;7.788;2023-01-23T11:34:09;3.10;70.40
11009;DHT22;5557;51.670;7.788;2023-01-23T11:37:03;3.10;69.60
11009;DHT22;5557;51.670;7.788;2023-01-23T11:40:18;3.20;69.90
11009;DHT22;5557;51.670;7.788;2023-01-23T11:42:47;3.20;67.70
11009;DHT22;5557;51.670;7.788;2023-01-23T11:45:41;3.30;65.80
11009;DHT22;5557;51.670;7.788;2023-01-23T11:48:33;3.30;65.80
11009;DHT22;5557;51.670;7.788;2023-01-23T11:51:19;3.20;65.70
11009;DHT22;5557;51.670;7.788;2023-01-23T11:59:53;3.30;65.80
11009;DHT22;5557;51.670;7.788;2023-01-23T12:03:04;3.30;64.30
11009;DHT22;5557;51.670;7.788;2023-01-23T12:09:13;3.30;66.70
11009;DHT22;5557;51.670;7.788;2023-01-23T12:24:37;3.40;66.90
11009;DHT22;5557;51.670;7.788;2023-01-23T12:27:40;3.30;66.10
11009;DHT22;5557;51.670;7.788;2023-01-23T12:30:48;3.30;67.70
11009;DHT22;5557;51.670;7.788;2023-01-23T12:34:15;3.40;67.60
11009;DHT22;5557;51.670;7.788;2023-01-23T12:36:54;3.40;65.90
11009;DHT22;5557;51.670;7.788;2023-01-23T12:40:09;3.30;65.70
11009;DHT22;5557;51.670;7.788;2023-01-23T12:45:42;3.30;65.80
11009;DHT22;5557;51.670;7.788;2023-01-23T12:48:16;3.30;65.80
11009;DHT22;5557;51.670;7.788;2023-01-23T12:51:21;3.30;65.80
11009;DHT22;5557;51.670;7.788;2023-01-23T12:53:52;3.30;63.90
11009;DHT22;5557;51.670;7.788;2023-01-23T12:56:28;3.30;65.40
11009;DHT22;5557;51.670;7.788;2023-01-23T13:02:43;3.40;67.90
11009;DHT22;5557;51.670;7.788;2023-01-23T13:05:15;3.30;64.00
11009;DHT22;5557;51.670;7.788;2023-01-23T13:14:44;3.40;66.80
11009;DHT22;5557;51.670;7.788;2023-01-23T13:17:50;3.40;63.20
11009;DHT22;5557;51.670;7.788;2023-01-23T13:20:36;3.40;64.80
11009;DHT22;5557;51.670;7.788;2023-01-23T13:23:37;3.40;65.50
11009;DHT22;5557;51.670;7.788;2023-01-23T13:26:38;3.40;66.60
11009;DHT22;5557;51.670;7.788;2023-01-23T13:29:48;3.40;67.40
11009;DHT22;5557;51.670;7.788;2023-01-23T13:32:20;3.30;70.90
11009;DHT22;5557;51.670;7.788;2023-01-23T13:34:54;3.40;72.50
11009;DHT22;5557;51.670;7.788;2023-01-23T13:37:47;3.40;72.60
11009;DHT22;5557;51.670;7.788;2023-01-23T13:40:20;3.40;69.00
11009;DHT22;5557;51.670;7.788;2023-01-23T13:42:51;3.40;68.60
11009;DHT22;5557;51.670;7.788;2023-01-23T13:45:23;3.40;64.80
11009;DHT22;5557;51.670;7.788;2023-01-23T13:48:33;3.40;66.80
11009;DHT22;5557;51.670;7.788;2023-01-23T13:51:37;3.50;66.70
11009;DHT22;5557;51.670;7.788;2023-01-23T13:54:29;3.40;67.00
11009;DHT22;5557;51.670;7.788;2023-01-23T13:57:29;3.40;68.90
11009;DHT22;5557;51.670;7.788;2023-01-23T14:00:17;3.50;70.00
11009;DHT22;5557;51.670;7.788;2023-01-23T14:06:10;3.50;68.90
11009;DHT22;5557;51.670;7.788;2023-01-23T14:08:53;3.50;72.60
11009;DHT22;5557;51.670;7.788;2023-01-23T14:11:35;3.50;72.70
11009;DHT22;5557;51.670;7.788;2023-01-23T14:14:17;3.50;73.60
11009;DHT22;5557;51.670;7.788;2023-01-23T14:17:16;3.50;75.70
11009;DHT22;5557;51.670;7.788;2023-01-23T14:20:01;3.50;72.80
11009;DHT22;5557;51.670;7.788;2023-01-23T14:22:43;3.50;73.20
11009;DHT22;5557;51.670;7.788;2023-01-23T14:25:17;3.50;74.10
11009;DHT22;5557;51.670;7.788;2023-01-23T14:27:45;3.50;75.40
11009;DHT22;5557;51.670;7.788;2023-01-23T14:30:24;3.40;75.30
11009;DHT22;5557;51.670;7.788;2023-01-23T14:32:54;3.50;75.60
11009;DHT22;5557;51.670;7.788;2023-01-23T14:35:29;3.50;76.60
11009;DHT22;5557;51.670;7.788;2023-01-23T14:38:03;3.50;76.80
11009;DHT22;5557;51.670;7.788;2023-01-23T14:40:31;3.50;75.70
11009;DHT22;5557;51.670;7.788;2023-01-23T14:43:23;3.50;77.00
11009;DHT22;5557;51.670;7.788;2023-01-23T14:48:32;3.50;78.30
11009;DHT22;5557;51.670;7.788;2023-01-23T14:51:25;3.50;80.10
11009;DHT22;5557;51.670;7.788;2023-01-23T14:54:00;3.50;80.40
11009;DHT22;5557;51.670;7.788;2023-01-23T14:56:33;3.50;80.20
11009;DHT22;5557;51.670;7.788;2023-01-23T14:59:04;3.50;80.40
11009;DHT22;5557;51.670;7.788;2023-01-23T15:01:32;3.40;80.00
11009;DHT22;5557;51.670;7.788;2023-01-23T15:04:22;3.40;82.70
11009;DHT22;5557;51.670;7.788;2023-01-23T15:06:55;3.40;81.60
11009;DHT22;5557;51.670;7.788;2023-01-23T15:09:37;3.40;82.40
11009;DHT22;5557;51.670;7.788;2023-01-23T15:12:17;3.40;81.90
11009;DHT22;5557;51.670;7.788;2023-01-23T15:14:44;3.40;84.30
11009;DHT22;5557;51.670;7.788;2023-01-23T15:17:15;3.40;84.40
11009;DHT22;5557;51.670;7.788;2023-01-23T15:19:49;3.40;84.60
11009;DHT22;5557;51.670;7.788;2023-01-23T15:22:27;3.40;86.80
11009;DHT22;5557;51.670;7.788;2023-01-23T15:24:55;3.40;86.70
11009;DHT22;5557;51.670;7.788;2023-01-23T15:30:36;3.40;88.50
11009;DHT22;5557;51.670;7.788;2023-01-23T15:33:24;3.40;86.30
11009;DHT22;5557;51.670;7.788;2023-01-23T15:36:01;3.40;87.10
11009;DHT22;5557;51.670;7.788;2023-01-23T15:38:29;3.40;87.30
11009;DHT22;5557;51.670;7.788;2023-01-23T15:40:56;3.40;87.80
11009;DHT22;5557;51.670;7.788;2023-01-23T15:43:24;3.40;88.20
11009;DHT22;5557;51.670;7.788;2023-01-23T15:45:51;3.30;89.10
11009;DHT22;5557;51.670;7.788;2023-01-23T15:53:02;3.30;88.30
11009;DHT22;5557;51.670;7.788;2023-01-23T15:55:29;3.30;88.90
11009;DHT22;5557;51.670;7.788;2023-01-23T15:57:56;3.30;88.90
11009;DHT22;5557;51.670;7.788;2023-01-23T16:00:27;3.40;90.50
11009;DHT22;5557;51.670;7.788;2023-01-23T16:02:57;3.40;91.50
11009;DHT22;5557;51.670;7.788;2023-01-23T16:05:26;3.30;87.50
11009;DHT22;5557;51.670;7.788;2023-01-23T16:07:55;3.30;89.40
11009;DHT22;5557;51.670;7.788;2023-01-23T16:10:27;3.30;87.30
11009;DHT22;5557;51.670;7.788;2023-01-23T16:12:56;3.30;88.90
11009;DHT22;5557;51.670;7.788;2023-01-23T16:15:27;3.20;84.90
11009;DHT22;5557;51.670;7.788;2023-01-23T16:17:54;3.20;82.80
11009;DHT22;5557;51.670;7.788;2023-01-23T16:20:26;3.30;84.40
11009;DHT22;5557;51.670;7.788;2023-01-23T16:22:56;3.20;84.10
11009;DHT22;5557;51.670;7.788;2023-01-23T16:25:33;3.20;83.90
11009;DHT22;5557;51.670;7.788;2023-01-23T16:28:15;3.20;82.60
11009;DHT22;5557;51.670;7.788;2023-01-23T16:30:43;3.20;84.30
11009;DHT22;5557;51.670;7.788;2023-01-23T16:33:10;3.20;80.20
11009;DHT22;5557;51.670;7.788;2023-01-23T16:35:38;3.20;81.70
11009;DHT22;5557;51.670;7.788;2023-01-23T16:38:28;3.20;81.00
11009;DHT22;5557;51.670;7.788;2023-01-23T16:40:57;3.20;80.00
11009;DHT22;5557;51.670;7.788;2023-01-23T16:43:26;3.20;77.90
11009;DHT22;5557;51.670;7.788;2023-01-23T16:45:53;3.20;79.60
11009;DHT22;5557;51.670;7.788;2023-01-23T16:48:23;3.20;78.70
11009;DHT22;5557;51.670;7.788;2023-01-23T16:51:17;3.20;74.30
11009;DHT22;5557;51.670;7.788;2023-01-23T16:53:52;3.20;73.10
11009;DHT22;5557;51.670;7.788;2023-01-23T16:56:33;3.20;71.40
11009;DHT22;5557;51.670;7.788;2023-01-23T16:59:03;3.20;73.50
11009;DHT22;5557;51.670;7.788;2023-01-23T17:01:36;3.20;70.50
11009;DHT22;5557;51.670;7.788;2023-01-23T17:04:05;3.20;72.70
11009;DHT22;5557;51.670;7.788;2023-01-23T17:06:32;3.20;72.80
11009;DHT22;5557;51.670;7.788;2023-01-23T17:08:59;3.20;73.00
11009;DHT22;5557;51.670;7.788;2023-01-23T17:11:32;3.20;73.80
11009;DHT22;5557;51.670;7.788;2023-01-23T17:14:06;3.20;72.80
11009;DHT22;5557;51.670;7.788;2023-01-23T17:16:35;3.20;72.50
11009;DHT22;5557;51.670;7.788;2023-01-23T17:19:08;3.20;73.10
11009;DHT22;5557;51.670;7.788;2023-01-23T17:21:36;3.20;71.50
11009;DHT22;5557;51.670;7.788;2023-01-23T17:24:07;3.20;73.20
11009;DHT22;5557;51.670;7.788;2023-01-23T17:26:36;3.20;72.50
11009;DHT22;5557;51.670;7.788;2023-01-23T17:29:03;3.10;75.10
11009;DHT22;5557;51.670;7.788;2023-01-23T17:31:30;3.10;75.00
11009;DHT22;5557;51.670;7.788;2023-01-23T17:33:59;3.10;73.80
11009;DHT22;5557;51.670;7.788;2023-01-23T17:36:29;3.10;74.20
11009;DHT22;5557;51.670;7.788;2023-01-23T17:38:57;3.10;73.90
11009;DHT22;5557;51.670;7.788;2023-01-23T17:41:24;3.10;73.90
11009;DHT22;5557;51.670;7.788;2023-01-23T17:43:51;3.10;75.10
11009;DHT22;5557;51.670;7.788;2023-01-23T17:46:23;3.10;71.30
11009;DHT22;5557;51.670;7.788;2023-01-23T17:48:53;3.10;71.70
11009;DHT22;5557;51.670;7.788;2023-01-23T17:51:22;3.10;71.50
11009;DHT22;5557;51.670;7.788;2023-01-23T17:53:50;3.10;70.40
11009;DHT22;5557;51.670;7.788;2023-01-23T17:56:17;3.10;71.40